sensor_id;sensor_type;location;lat;lon;timestamp;pressure;altitude;pressure_sealevel;temperature;humidity
21236;BME280;10775;42.678;26.324;2023-02-16T00:00:39;100054.38;;;4.08;100.00
21236;BME280;10775;42.678;26.324;2023-02-16T00:03:04;100054.88;;;3.95;100.00
21236;BME280;10775;42.678;26.324;2023-02-16T00:05:33;100051.06;;;3.82;100.00
21236;BME280;10775;42.678;26.324;2023-02-16T00:07:59;100056.00;;;3.74;100.00
21236;BME280;10775;42.678;26.324;2023-02-16T00:10:29;100059.03;;;3.89;100.00
21236;BME280;10775;42.678;26.324;2023-02-16T00:12:55;100053.81;;;3.88;100.00
21236;BME280;10775;42.678;26.324;2023-02-16T00:15:40;100053.69;;;3.55;100.00
21236;BME280;10775;42.678;26.324;2023-02-16T00:18:17;100052.72;;;3.22;100.00
21236;BME280;10775;42.678;26.324;2023-02-16T00:20:44;100046.31;;;3.38;100.00
21236;BME280;10775;42.678;26.324;2023-02-16T00:23:10;100048.59;;;3.56;100.00
21236;BME280;10775;42.678;26.324;2023-02-16T00:25:35;100048.59;;;3.56;100.00
21236;BME280;10775;42.678;26.324;2023-02-16T00:28:03;100053.19;;;3.66;100.00
21236;BME280;10775;42.678;26.324;2023-02-16T00:30:29;100046.53;;;3.75;100.00
21236;BME280;10775;42.678;26.324;2023-02-16T00:32:55;100052.09;;;3.88;100.00
21236;BME280;10775;42.678;26.324;2023-02-16T00:35:21;100050.34;;;3.87;100.00
21236;BME280;10775;42.678;26.324;2023-02-16T00:37:47;100047.31;;;3.72;100.00
21236;BME280;10775;42.678;26.324;2023-02-16T00:40:15;100052.69;;;3.49;100.00
21236;BME280;10775;42.678;26.324;2023-02-16T00:42:43;100049.63;;;3.34;100.00
21236;BME280;10775;42.678;26.324;2023-02-16T00:45:20;100050.94;;;3.20;100.00
21236;BME280;10775;42.678;26.324;2023-02-16T00:47:48;100051.41;;;3.35;100.00
21236;BME280;10775;42.678;26.324;2023-02-16T00:50:31;100044.97;;;3.51;100.00
21236;BME280;10775;42.678;26.324;2023-02-16T00:52:57;100039.56;;;3.72;100.00
21236;BME280;10775;42.678;26.324;2023-02-16T00:55:26;100046.75;;;3.82;100.00
21236;BME280;10775;42.678;26.324;2023-02-16T01:00:22;100049.06;;;3.43;100.00
21236;BME280;10775;42.678;26.324;2023-02-16T01:02:50;100037.88;;;3.44;100.00
21236;BME280;10775;42.678;26.324;2023-02-16T01:05:17;100035.28;;;3.44;100.00
21236;BME280;10775;42.678;26.324;2023-02-16T01:07:42;100026.34;;;3.63;100.00
21236;BME280;10775;42.678;26.324;2023-02-16T01:10:27;100028.03;;;3.61;100.00
21236;BME280;10775;42.678;26.324;2023-02-16T01:13:11;100038.78;;;3.17;100.00
21236;BME280;10775;42.678;26.324;2023-02-16T01:15:37;100034.44;;;2.89;100.00
21236;BME280;10775;42.678;26.324;2023-02-16T01:18:04;100034.72;;;2.98;100.00
21236;BME280;10775;42.678;26.324;2023-02-16T01:20:30;100027.91;;;3.00;100.00
21236;BME280;10775;42.678;26.324;2023-02-16T01:22:55;100032.72;;;3.17;100.00
21236;BME280;10775;42.678;26.324;2023-02-16T01:25:21;100017.88;;;3.10;100.00
21236;BME280;10775;42.678;26.324;2023-02-16T01:27:46;100020.56;;;3.14;100.00
21236;BME280;10775;42.678;26.324;2023-02-16T01:30:18;100016.97;;;3.09;100.00
21236;BME280;10775;42.678;26.324;2023-02-16T01:32:45;100021.16;;;3.33;100.00
21236;BME280;10775;42.678;26.324;2023-02-16T01:35:28;100021.41;;;3.42;100.00
21236;BME280;10775;42.678;26.324;2023-02-16T01:37:55;100017.72;;;3.34;100.00
21236;BME280;10775;42.678;26.324;2023-02-16T01:43:03;100006.38;;;3.00;100.00
21236;BME280;10775;42.678;26.324;2023-02-16T01:45:36;100007.09;;;2.96;100.00
21236;BME280;10775;42.678;26.324;2023-02-16T01:48:05;100000.81;;;3.15;100.00
21236;BME280;10775;42.678;26.324;2023-02-16T01:50:48;100001.81;;;3.20;100.00
21236;BME280;10775;42.678;26.324;2023-02-16T01:53:50;100009.91;;;3.31;100.00
21236;BME280;10775;42.678;26.324;2023-02-16T01:56:30;100005.66;;;3.33;100.00
21236;BME280;10775;42.678;26.324;2023-02-16T01:59:04;100006.78;;;3.42;100.00
21236;BME280;10775;42.678;26.324;2023-02-16T02:01:58;100005.13;;;3.44;100.00
21236;BME280;10775;42.678;26.324;2023-02-16T02:07:06;100008.66;;;3.19;100.00
21236;BME280;10775;42.678;26.324;2023-02-16T02:09:42;100012.41;;;3.28;100.00
21236;BME280;10775;42.678;26.324;2023-02-16T02:12:45;100006.59;;;3.36;100.00
21236;BME280;10775;42.678;26.324;2023-02-16T02:15:14;100013.50;;;3.36;100.00
21236;BME280;10775;42.678;26.324;2023-02-16T02:17:41;100008.91;;;3.27;100.00
21236;BME280;10775;42.678;26.324;2023-02-16T02:23:35;100011.13;;;3.15;100.00
21236;BME280;10775;42.678;26.324;2023-02-16T02:28:55;100011.72;;;3.06;100.00
21236;BME280;10775;42.678;26.324;2023-02-16T02:32:09;100014.53;;;3.14;100.00
21236;BME280;10775;42.678;26.324;2023-02-16T02:42:40;100018.34;;;3.25;100.00
21236;BME280;10775;42.678;26.324;2023-02-16T02:45:13;100011.47;;;3.25;100.00
21236;BME280;10775;42.678;26.324;2023-02-16T02:47:43;100019.13;;;3.22;100.00
21236;BME280;10775;42.678;26.324;2023-02-16T02:53:11;100014.16;;;3.01;100.00
21236;BME280;10775;42.678;26.324;2023-02-16T02:55:43;100021.03;;;3.01;100.00
21236;BME280;10775;42.678;26.324;2023-02-16T02:58:31;100021.97;;;3.03;100.00
21236;BME280;10775;42.678;26.324;2023-02-16T03:01:18;100020.78;;;2.93;100.00
21236;BME280;10775;42.678;26.324;2023-02-16T03:03:50;100021.22;;;2.80;100.00
21236;BME280;10775;42.678;26.324;2023-02-16T03:06:27;100021.66;;;2.94;100.00
21236;BME280;10775;42.678;26.324;2023-02-16T03:09:03;100019.91;;;2.93;100.00
21236;BME280;10775;42.678;26.324;2023-02-16T03:11:30;100017.22;;;2.90;100.00
21236;BME280;10775;42.678;26.324;2023-02-16T03:16:49;100020.50;;;2.84;100.00
21236;BME280;10775;42.678;26.324;2023-02-16T03:19:34;100018.72;;;2.83;100.00
21236;BME280;10775;42.678;26.324;2023-02-16T03:22:19;100016.91;;;2.79;100.00
21236;BME280;10775;42.678;26.324;2023-02-16T03:25:03;100022.50;;;2.93;100.00
21236;BME280;10775;42.678;26.324;2023-02-16T03:27:47;100015.22;;;2.81;100.00
21236;BME280;10775;42.678;26.324;2023-02-16T03:30:31;100017.19;;;2.88;100.00
21236;BME280;10775;42.678;26.324;2023-02-16T03:32:57;100019.97;;;2.94;100.00
21236;BME280;10775;42.678;26.324;2023-02-16T03:35:23;100017.44;;;2.70;100.00
21236;BME280;10775;42.678;26.324;2023-02-16T03:37:49;100021.75;;;2.70;100.00
21236;BME280;10775;42.678;26.324;2023-02-16T03:40:16;100028.13;;;2.81;100.00
21236;BME280;10775;42.678;26.324;2023-02-16T03:42:59;100023.97;;;2.85;100.00
21236;BME280;10775;42.678;26.324;2023-02-16T03:45:25;100019.97;;;2.94;100.00
21236;BME280;10775;42.678;26.324;2023-02-16T03:47:51;100014.94;;;2.99;100.00
21236;BME280;10775;42.678;26.324;2023-02-16T03:50:17;100021.53;;;2.89;100.00
21236;BME280;10775;42.678;26.324;2023-02-16T03:52:42;100022.19;;;2.83;100.00
21236;BME280;10775;42.678;26.324;2023-02-16T03:55:08;100021.94;;;2.76;100.00
21236;BME280;10775;42.678;26.324;2023-02-16T03:57:33;100020.50;;;2.84;100.00
21236;BME280;10775;42.678;26.324;2023-02-16T03:59:59;100015.13;;;2.78;100.00
21236;BME280;10775;42.678;26.324;2023-02-16T04:02:27;100014.63;;;2.63;100.00
21236;BME280;10775;42.678;26.324;2023-02-16T04:04:53;100019.06;;;2.41;100.00
21236;BME280;10775;42.678;26.324;2023-02-16T04:07:18;100011.94;;;2.34;100.00
21236;BME280;10775;42.678;26.324;2023-02-16T04:09:44;100012.88;;;2.36;100.00
21236;BME280;10775;42.678;26.324;2023-02-16T04:12:10;100010.03;;;2.54;100.00
21236;BME280;10775;42.678;26.324;2023-02-16T04:14:55;100012.47;;;2.49;100.00
21236;BME280;10775;42.678;26.324;2023-02-16T04:17:20;100008.84;;;2.44;100.00
21236;BME280;10775;42.678;26.324;2023-02-16T04:19:46;100010.84;;;2.53;100.00
21236;BME280;10775;42.678;26.324;2023-02-16T04:22:11;100010.81;;;2.51;100.00
21236;BME280;10775;42.678;26.324;2023-02-16T04:24:37;100016.28;;;2.60;100.00
21236;BME280;10775;42.678;26.324;2023-02-16T04:27:02;100013.16;;;2.71;100.00
21236;BME280;10775;42.678;26.324;2023-02-16T04:29:28;100014.06;;;2.71;100.00
21236;BME280;10775;42.678;26.324;2023-02-16T04:31:54;100009.09;;;2.77;100.00
21236;BME280;10775;42.678;26.324;2023-02-16T04:34:20;100014.44;;;2.83;100.00
21236;BME280;10775;42.678;26.324;2023-02-16T04:36:45;100020.59;;;2.87;100.00
21236;BME280;10775;42.678;26.324;2023-02-16T04:39:10;100017.19;;;2.88;100.00
21236;BME280;10775;42.678;26.324;2023-02-16T04:41:36;100012.88;;;2.89;100.00
21236;BME280;10775;42.678;26.324;2023-02-16T04:44:02;100025.91;;;2.92;100.00
21236;BME280;10775;42.678;26.324;2023-02-16T04:46:27;100020.28;;;2.78;100.00
21236;BME280;10775;42.678;26.324;2023-02-16T04:48:53;100024.75;;;2.56;100.00
21236;BME280;10775;42.678;26.324;2023-02-16T04:51:18;100021.91;;;2.49;100.00
21236;BME280;10775;42.678;26.324;2023-02-16T04:53:43;100026.31;;;2.51;100.00
21236;BME280;10775;42.678;26.324;2023-02-16T04:56:10;100026.16;;;2.47;100.00
21236;BME280;10775;42.678;26.324;2023-02-16T04:58:35;100024.00;;;2.35;100.00
21236;BME280;10775;42.678;26.324;2023-02-16T05:01:01;100029.84;;;2.29;100.00
21236;BME280;10775;42.678;26.324;2023-02-16T05:03:27;100027.63;;;2.40;100.00
21236;BME280;10775;42.678;26.324;2023-02-16T05:05:53;100028.66;;;2.45;100.00
21236;BME280;10775;42.678;26.324;2023-02-16T05:08:18;100023.50;;;2.45;100.00
21236;BME280;10775;42.678;26.324;2023-02-16T05:10:43;100017.09;;;2.34;100.00
21236;BME280;10775;42.678;26.324;2023-02-16T05:13:10;100022.69;;;2.46;100.00
21236;BME280;10775;42.678;26.324;2023-02-16T05:15:55;100026.25;;;2.50;100.00
21236;BME280;10775;42.678;26.324;2023-02-16T05:18:20;100030.03;;;2.59;100.00
21236;BME280;10775;42.678;26.324;2023-02-16T05:20:46;100038.72;;;2.37;100.00
21236;BME280;10775;42.678;26.324;2023-02-16T05:23:30;100038.84;;;2.41;100.00
21236;BME280;10775;42.678;26.324;2023-02-16T05:25:56;100040.78;;;2.46;100.00
21236;BME280;10775;42.678;26.324;2023-02-16T05:28:21;100038.38;;;2.52;100.00
21236;BME280;10775;42.678;26.324;2023-02-16T05:30:46;100046.34;;;2.33;100.00
21236;BME280;10775;42.678;26.324;2023-02-16T05:33:12;100048.09;;;2.34;100.00
21236;BME280;10775;42.678;26.324;2023-02-16T05:35:37;100048.78;;;2.30;100.00
21236;BME280;10775;42.678;26.324;2023-02-16T05:38:03;100057.13;;;2.47;100.00
21236;BME280;10775;42.678;26.324;2023-02-16T05:40:28;100054.28;;;2.65;100.00
21236;BME280;10775;42.678;26.324;2023-02-16T05:42:54;100058.09;;;2.76;100.00
21236;BME280;10775;42.678;26.324;2023-02-16T05:45:20;100053.97;;;2.81;100.00
21236;BME280;10775;42.678;26.324;2023-02-16T05:47:45;100063.50;;;2.82;100.00
21236;BME280;10775;42.678;26.324;2023-02-16T05:50:11;100066.09;;;2.83;100.00
21236;BME280;10775;42.678;26.324;2023-02-16T05:52:36;100069.88;;;2.93;100.00
21236;BME280;10775;42.678;26.324;2023-02-16T05:55:03;100073.44;;;2.97;100.00
21236;BME280;10775;42.678;26.324;2023-02-16T05:57:28;100075.66;;;2.86;100.00
21236;BME280;10775;42.678;26.324;2023-02-16T05:59:54;100073.66;;;2.77;100.00
21236;BME280;10775;42.678;26.324;2023-02-16T06:02:19;100075.72;;;2.88;100.00
21236;BME280;10775;42.678;26.324;2023-02-16T06:04:45;100079.03;;;2.83;100.00
21236;BME280;10775;42.678;26.324;2023-02-16T06:07:10;100084.50;;;2.67;100.00
21236;BME280;10775;42.678;26.324;2023-02-16T06:09:36;100085.59;;;2.74;100.00
21236;BME280;10775;42.678;26.324;2023-02-16T06:12:01;100085.91;;;2.83;100.00
21236;BME280;10775;42.678;26.324;2023-02-16T06:14:27;100073.31;;;2.94;100.00
21236;BME280;10775;42.678;26.324;2023-02-16T06:16:52;100081.47;;;3.04;100.00
21236;BME280;10775;42.678;26.324;2023-02-16T06:19:18;100074.81;;;3.13;100.00
21236;BME280;10775;42.678;26.324;2023-02-16T06:21:43;100087.84;;;3.16;100.00
21236;BME280;10775;42.678;26.324;2023-02-16T06:24:11;100085.56;;;3.25;100.00
21236;BME280;10775;42.678;26.324;2023-02-16T06:26:37;100087.59;;;3.35;100.00
21236;BME280;10775;42.678;26.324;2023-02-16T06:29:03;100092.66;;;3.32;100.00
21236;BME280;10775;42.678;26.324;2023-02-16T06:31:28;100090.81;;;3.28;100.00
21236;BME280;10775;42.678;26.324;2023-02-16T06:33:54;100090.97;;;3.33;100.00
21236;BME280;10775;42.678;26.324;2023-02-16T06:36:21;100092.09;;;3.41;100.00
21236;BME280;10775;42.678;26.324;2023-02-16T06:38:46;100095.72;;;3.47;100.00
21236;BME280;10775;42.678;26.324;2023-02-16T06:41:12;100102.50;;;3.44;100.00
21236;BME280;10775;42.678;26.324;2023-02-16T06:44:03;100100.94;;;3.49;100.00
21236;BME280;10775;42.678;26.324;2023-02-16T06:46:29;100097.03;;;3.62;100.00
21236;BME280;10775;42.678;26.324;2023-02-16T06:48:55;100097.19;;;3.66;100.00
21236;BME280;10775;42.678;26.324;2023-02-16T06:51:21;100100.50;;;3.62;100.00
21236;BME280;10775;42.678;26.324;2023-02-16T06:53:46;100096.41;;;3.70;100.00
21236;BME280;10775;42.678;26.324;2023-02-16T06:56:12;100097.72;;;3.85;100.00
21236;BME280;10775;42.678;26.324;2023-02-16T06:58:37;100101.25;;;3.88;98.98
21236;BME280;10775;42.678;26.324;2023-02-16T07:01:03;100096.06;;;3.87;97.48
21236;BME280;10775;42.678;26.324;2023-02-16T07:03:28;100104.53;;;3.81;98.72
21236;BME280;10775;42.678;26.324;2023-02-16T07:05:54;100103.97;;;3.91;98.42
21236;BME280;10775;42.678;26.324;2023-02-16T07:08:19;100098.22;;;4.02;98.33
21236;BME280;10775;42.678;26.324;2023-02-16T07:10:45;100102.59;;;4.04;97.05
21236;BME280;10775;42.678;26.324;2023-02-16T07:13:11;100107.09;;;4.10;97.14
21236;BME280;10775;42.678;26.324;2023-02-16T07:15:37;100111.91;;;4.28;96.31
21236;BME280;10775;42.678;26.324;2023-02-16T07:18:03;100104.91;;;4.55;95.63
21236;BME280;10775;42.678;26.324;2023-02-16T07:20:29;100101.97;;;4.76;95.47
21236;BME280;10775;42.678;26.324;2023-02-16T07:22:54;100106.84;;;4.97;95.05
21236;BME280;10775;42.678;26.324;2023-02-16T07:25:20;100096.91;;;5.16;94.86
21236;BME280;10775;42.678;26.324;2023-02-16T07:27:46;100101.56;;;5.29;94.62
21236;BME280;10775;42.678;26.324;2023-02-16T07:30:12;100102.13;;;5.52;95.20
21236;BME280;10775;42.678;26.324;2023-02-16T07:32:38;100097.19;;;5.64;93.61
21236;BME280;10775;42.678;26.324;2023-02-16T07:35:04;100102.41;;;5.66;94.44
21236;BME280;10775;42.678;26.324;2023-02-16T07:37:29;100098.16;;;5.68;95.40
21236;BME280;10775;42.678;26.324;2023-02-16T07:39:55;100095.56;;;5.70;95.77
21236;BME280;10775;42.678;26.324;2023-02-16T07:42:20;100096.69;;;5.43;95.61
21236;BME280;10775;42.678;26.324;2023-02-16T07:44:46;100093.53;;;5.55;100.00
21236;BME280;10775;42.678;26.324;2023-02-16T07:47:12;100090.25;;;5.63;100.00
21236;BME280;10775;42.678;26.324;2023-02-16T07:49:38;100081.22;;;5.87;100.00
21236;BME280;10775;42.678;26.324;2023-02-16T07:52:04;100088.09;;;6.24;100.00
21236;BME280;10775;42.678;26.324;2023-02-16T07:54:30;100092.06;;;6.98;97.48
21236;BME280;10775;42.678;26.324;2023-02-16T07:56:56;100088.03;;;7.75;89.44
21236;BME280;10775;42.678;26.324;2023-02-16T07:59:21;100080.22;;;8.45;84.91
21236;BME280;10775;42.678;26.324;2023-02-16T08:01:47;100079.88;;;8.16;82.89
21236;BME280;10775;42.678;26.324;2023-02-16T08:04:12;100078.22;;;9.09;86.90
21236;BME280;10775;42.678;26.324;2023-02-16T08:06:38;100078.88;;;10.17;82.45
21236;BME280;10775;42.678;26.324;2023-02-16T08:09:04;100070.03;;;9.86;78.98
21236;BME280;10775;42.678;26.324;2023-02-16T08:11:29;100065.59;;;9.69;74.13
21236;BME280;10775;42.678;26.324;2023-02-16T08:13:55;100070.03;;;9.92;77.05
21236;BME280;10775;42.678;26.324;2023-02-16T08:16:24;100073.78;;;10.55;78.50
21236;BME280;10775;42.678;26.324;2023-02-16T08:18:51;100067.56;;;10.27;76.48
21236;BME280;10775;42.678;26.324;2023-02-16T08:21:18;100065.97;;;10.75;77.03
21236;BME280;10775;42.678;26.324;2023-02-16T08:24:14;100060.78;;;10.87;76.67
21236;BME280;10775;42.678;26.324;2023-02-16T08:26:41;100059.88;;;11.19;77.27
21236;BME280;10775;42.678;26.324;2023-02-16T08:29:07;100059.00;;;11.42;73.14
21236;BME280;10775;42.678;26.324;2023-02-16T08:31:39;100054.56;;;11.70;75.86
21236;BME280;10775;42.678;26.324;2023-02-16T08:34:06;100059.78;;;11.94;71.32
21236;BME280;10775;42.678;26.324;2023-02-16T08:36:36;100057.28;;;11.28;74.13
21236;BME280;10775;42.678;26.324;2023-02-16T08:39:09;100063.25;;;11.95;74.84
21236;BME280;10775;42.678;26.324;2023-02-16T08:41:36;100058.16;;;11.06;68.85
21236;BME280;10775;42.678;26.324;2023-02-16T08:44:04;100060.78;;;11.35;71.67
21236;BME280;10775;42.678;26.324;2023-02-16T08:46:30;100054.66;;;11.41;75.39
21236;BME280;10775;42.678;26.324;2023-02-16T08:48:57;100064.19;;;11.52;70.30
21236;BME280;10775;42.678;26.324;2023-02-16T08:51:29;100059.91;;;11.07;73.50
21236;BME280;10775;42.678;26.324;2023-02-16T08:53:57;100062.50;;;10.69;65.41
21236;BME280;10775;42.678;26.324;2023-02-16T08:56:23;100060.78;;;10.84;76.34
21236;BME280;10775;42.678;26.324;2023-02-16T08:58:48;100061.59;;;11.57;71.59
21236;BME280;10775;42.678;26.324;2023-02-16T09:01:14;100066.88;;;10.90;66.65
21236;BME280;10775;42.678;26.324;2023-02-16T09:03:40;100056.41;;;11.26;73.08
21236;BME280;10775;42.678;26.324;2023-02-16T09:06:08;100057.16;;;11.78;71.02
21236;BME280;10775;42.678;26.324;2023-02-16T09:08:34;100058.06;;;11.63;69.33
21236;BME280;10775;42.678;26.324;2023-02-16T09:11:10;100068.63;;;10.91;63.57
21236;BME280;10775;42.678;26.324;2023-02-16T09:13:37;100059.00;;;11.40;72.77
21236;BME280;10775;42.678;26.324;2023-02-16T09:16:05;100065.84;;;12.04;69.47
21236;BME280;10775;42.678;26.324;2023-02-16T09:18:31;100064.84;;;12.37;67.99
21236;BME280;10775;42.678;26.324;2023-02-16T09:21:22;100061.28;;;12.46;63.08
21236;BME280;10775;42.678;26.324;2023-02-16T09:23:50;100068.38;;;12.27;68.65
21236;BME280;10775;42.678;26.324;2023-02-16T09:26:18;100067.47;;;12.27;69.26
21236;BME280;10775;42.678;26.324;2023-02-16T09:28:45;100064.81;;;12.34;65.81
21236;BME280;10775;42.678;26.324;2023-02-16T09:31:22;100056.97;;;12.37;66.54
21236;BME280;10775;42.678;26.324;2023-02-16T09:36:24;100058.91;;;11.94;63.73
21236;BME280;10775;42.678;26.324;2023-02-16T09:38:50;100061.53;;;11.72;67.66
21236;BME280;10775;42.678;26.324;2023-02-16T09:44:02;100056.22;;;12.06;62.79
21236;BME280;10775;42.678;26.324;2023-02-16T09:46:31;100060.50;;;12.24;61.55
21236;BME280;10775;42.678;26.324;2023-02-16T09:49:00;100057.88;;;12.30;64.53
21236;BME280;10775;42.678;26.324;2023-02-16T09:51:38;100059.44;;;12.57;65.12
21236;BME280;10775;42.678;26.324;2023-02-16T09:56:54;100045.69;;;12.15;61.95
21236;BME280;10775;42.678;26.324;2023-02-16T09:59:41;100047.44;;;12.18;59.01
21236;BME280;10775;42.678;26.324;2023-02-16T10:02:47;100043.91;;;12.24;62.05
21236;BME280;10775;42.678;26.324;2023-02-16T10:05:13;100043.88;;;12.30;62.07
21236;BME280;10775;42.678;26.324;2023-02-16T10:07:58;100036.06;;;12.22;59.71
21236;BME280;10775;42.678;26.324;2023-02-16T10:13:07;100027.31;;;12.20;63.55
21236;BME280;10775;42.678;26.324;2023-02-16T10:15:36;100029.00;;;12.29;62.01
21236;BME280;10775;42.678;26.324;2023-02-16T10:18:27;100028.97;;;12.38;61.59
21236;BME280;10775;42.678;26.324;2023-02-16T10:20:57;100020.34;;;12.22;60.70
21236;BME280;10775;42.678;26.324;2023-02-16T10:25:59;100023.94;;;12.00;59.52
21236;BME280;10775;42.678;26.324;2023-02-16T10:31:39;100014.50;;;11.23;59.27
21236;BME280;10775;42.678;26.324;2023-02-16T10:39:49;100009.91;;;12.04;60.05
21236;BME280;10775;42.678;26.324;2023-02-16T10:42:39;100002.78;;;12.29;57.47
21236;BME280;10775;42.678;26.324;2023-02-16T10:47:45;100003.00;;;11.83;58.65
21236;BME280;10775;42.678;26.324;2023-02-16T10:50:34;99998.50;;;12.17;60.83
21236;BME280;10775;42.678;26.324;2023-02-16T10:53:05;99992.50;;;11.93;58.53
21236;BME280;10775;42.678;26.324;2023-02-16T10:55:33;99997.56;;;12.26;58.27
21236;BME280;10775;42.678;26.324;2023-02-16T10:58:00;99996.59;;;12.42;57.58
21236;BME280;10775;42.678;26.324;2023-02-16T11:00:50;99987.06;;;12.30;59.69
21236;BME280;10775;42.678;26.324;2023-02-16T11:03:22;99993.31;;;12.03;56.70
21236;BME280;10775;42.678;26.324;2023-02-16T11:05:48;99979.44;;;11.80;57.38
21236;BME280;10775;42.678;26.324;2023-02-16T11:08:13;99987.28;;;11.84;59.61
21236;BME280;10775;42.678;26.324;2023-02-16T11:10:52;99981.16;;;11.90;55.44
21236;BME280;10775;42.678;26.324;2023-02-16T11:13:31;99977.53;;;12.17;63.05
21236;BME280;10775;42.678;26.324;2023-02-16T11:16:19;99971.28;;;12.32;59.20
21236;BME280;10775;42.678;26.324;2023-02-16T11:18:48;99970.34;;;12.48;60.22
21236;BME280;10775;42.678;26.324;2023-02-16T11:21:20;99968.88;;;11.98;53.55
21236;BME280;10775;42.678;26.324;2023-02-16T11:23:57;99966.09;;;12.24;60.96
21236;BME280;10775;42.678;26.324;2023-02-16T11:26:25;99969.72;;;12.08;58.42
21236;BME280;10775;42.678;26.324;2023-02-16T11:28:51;99963.50;;;12.23;59.17
21236;BME280;10775;42.678;26.324;2023-02-16T11:31:37;99956.59;;;12.06;58.71
21236;BME280;10775;42.678;26.324;2023-02-16T11:34:06;99953.59;;;12.61;64.16
21236;BME280;10775;42.678;26.324;2023-02-16T11:41:44;99942.56;;;13.18;66.27
21236;BME280;10775;42.678;26.324;2023-02-16T11:47:08;99921.09;;;12.81;59.82
21236;BME280;10775;42.678;26.324;2023-02-16T11:49:44;99929.19;;;12.53;54.08
21236;BME280;10775;42.678;26.324;2023-02-16T11:52:39;99930.72;;;12.77;65.15
21236;BME280;10775;42.678;26.324;2023-02-16T11:55:22;99919.31;;;12.81;51.73
21236;BME280;10775;42.678;26.324;2023-02-16T11:57:48;99913.03;;;12.98;56.99
21236;BME280;10775;42.678;26.324;2023-02-16T12:00:18;99912.91;;;13.09;63.92
21236;BME280;10775;42.678;26.324;2023-02-16T12:19:03;99894.34;;;13.24;59.89
21236;BME280;10775;42.678;26.324;2023-02-16T12:27:47;99887.19;;;13.41;61.46
21236;BME280;10775;42.678;26.324;2023-02-16T12:33:29;99872.00;;;12.89;62.17
21236;BME280;10775;42.678;26.324;2023-02-16T12:44:53;99859.56;;;13.07;59.99
21236;BME280;10775;42.678;26.324;2023-02-16T12:47:29;99857.84;;;13.02;59.28
21236;BME280;10775;42.678;26.324;2023-02-16T12:50:14;99854.66;;;12.76;51.24
21236;BME280;10775;42.678;26.324;2023-02-16T12:52:50;99845.13;;;12.64;46.97
21236;BME280;10775;42.678;26.324;2023-02-16T12:55:37;99844.88;;;12.90;65.14
21236;BME280;10775;42.678;26.324;2023-02-16T13:00:40;99847.50;;;12.90;64.04
21236;BME280;10775;42.678;26.324;2023-02-16T13:05:39;99848.50;;;12.75;60.58
21236;BME280;10775;42.678;26.324;2023-02-16T13:08:23;99842.59;;;12.56;59.95
21236;BME280;10775;42.678;26.324;2023-02-16T13:11:04;99833.00;;;12.52;62.75
21236;BME280;10775;42.678;26.324;2023-02-16T13:13:33;99828.94;;;12.22;44.61
21236;BME280;10775;42.678;26.324;2023-02-16T13:18:37;99827.63;;;12.66;61.86
21236;BME280;10775;42.678;26.324;2023-02-16T13:38:37;99820.94;;;12.36;62.76
21236;BME280;10775;42.678;26.324;2023-02-16T13:43:51;99811.50;;;12.13;48.03
21236;BME280;10775;42.678;26.324;2023-02-16T13:46:31;99813.09;;;12.33;69.26
21236;BME280;10775;42.678;26.324;2023-02-16T13:48:59;99817.25;;;12.52;63.90
21236;BME280;10775;42.678;26.324;2023-02-16T13:51:27;99817.38;;;12.43;64.91
21236;BME280;10775;42.678;26.324;2023-02-16T13:54:05;99820.06;;;12.34;66.71
21236;BME280;10775;42.678;26.324;2023-02-16T13:56:35;99819.09;;;12.46;66.11
21236;BME280;10775;42.678;26.324;2023-02-16T14:01:43;99818.06;;;12.60;65.30
21236;BME280;10775;42.678;26.324;2023-02-16T14:04:13;99809.38;;;12.52;71.75
21236;BME280;10775;42.678;26.324;2023-02-16T14:12:13;99807.91;;;12.25;68.82
21236;BME280;10775;42.678;26.324;2023-02-16T14:19:56;99802.78;;;12.11;72.58
21236;BME280;10775;42.678;26.324;2023-02-16T14:22:31;99799.25;;;12.15;70.56
21236;BME280;10775;42.678;26.324;2023-02-16T14:25:00;99796.63;;;12.17;65.94
21236;BME280;10775;42.678;26.324;2023-02-16T14:33:02;99801.13;;;11.98;74.90
21236;BME280;10775;42.678;26.324;2023-02-16T14:35:35;99796.81;;;11.94;72.83
21236;BME280;10775;42.678;26.324;2023-02-16T14:38:04;99797.75;;;11.84;73.93
21236;BME280;10775;42.678;26.324;2023-02-16T14:43:03;99790.00;;;11.67;70.24
21236;BME280;10775;42.678;26.324;2023-02-16T14:48:57;99799.59;;;11.69;82.93
21236;BME280;10775;42.678;26.324;2023-02-16T14:56:51;99794.44;;;11.54;86.33
21236;BME280;10775;42.678;26.324;2023-02-16T14:59:26;99792.72;;;11.53;86.49
21236;BME280;10775;42.678;26.324;2023-02-16T15:01:53;99791.88;;;11.45;87.07
21236;BME280;10775;42.678;26.324;2023-02-16T15:04:30;99791.13;;;11.21;78.79
21236;BME280;10775;42.678;26.324;2023-02-16T15:06:59;99803.38;;;11.13;86.59
21236;BME280;10775;42.678;26.324;2023-02-16T15:09:28;99799.06;;;11.03;84.42
21236;BME280;10775;42.678;26.324;2023-02-16T15:12:07;99796.47;;;10.94;78.46
21236;BME280;10775;42.678;26.324;2023-02-16T15:15:00;99798.25;;;10.85;85.45
21236;BME280;10775;42.678;26.324;2023-02-16T15:17:31;99791.31;;;10.81;83.21
21236;BME280;10775;42.678;26.324;2023-02-16T15:20:16;99796.53;;;10.75;84.40
21236;BME280;10775;42.678;26.324;2023-02-16T15:22:56;99800.06;;;10.65;85.27
21236;BME280;10775;42.678;26.324;2023-02-16T15:25:34;99800.94;;;10.62;86.10
21236;BME280;10775;42.678;26.324;2023-02-16T15:30:39;99794.00;;;10.44;78.31
21236;BME280;10775;42.678;26.324;2023-02-16T15:34:12;99800.97;;;10.47;86.40
21236;BME280;10775;42.678;26.324;2023-02-16T15:36:13;99800.09;;;10.40;86.74